Time;durP1;ratioP1;P1;durP2;ratioP2;P2;SDS_P1;SDS_P2;PMS_P1;PMS_P2;Temp;Humidity;BMP_temperature;BMP_pressure;BME280_temperature;BME280_humidity;BME280_pressure;Samples;Min_cycle;Max_cycle;Signal;HPM_P1;HPM_P2
2021/08/09 00:02:07;;;;;;;2.35;1.17;;;24.10;58.40;;;;;;4850689;29;89792;-6
2021/08/09 00:04:34;;;;;;;1.92;1.30;;;24.10;58.40;;;;;;4851847;29;88109;-7
2021/08/09 00:07:00;;;;;;;2.65;1.20;;;24.10;58.40;;;;;;4837346;29;88389;-7
2021/08/09 00:09:26;;;;;;;2.58;1.30;;;24.10;58.40;;;;;;4837093;29;88348;-8
2021/08/09 00:11:52;;;;;;;2.13;1.27;;;24.10;58.50;;;;;;4837522;29;88540;-10
2021/08/09 00:14:17;;;;;;;1.75;1.10;;;24.10;58.50;;;;;;4837317;29;88928;-11
2021/08/09 00:16:43;;;;;;;2.95;1.30;;;24.10;58.50;;;;;;4836884;29;88112;-8
2021/08/09 00:19:09;;;;;;;2.10;1.05;;;24.10;58.50;;;;;;4836815;29;88646;-7
2021/08/09 00:21:34;;;;;;;2.20;1.15;;;24.10;58.50;;;;;;4837052;29;88023;-9
2021/08/09 00:24:00;;;;;;;1.25;1.15;;;24.00;58.50;;;;;;4837686;29;87882;-7
2021/08/09 00:26:29;;;;;;;1.55;1.33;;;24.10;58.50;;;;;;4836777;29;87365;-7
2021/08/09 00:28:55;;;;;;;1.88;1.30;;;24.10;58.50;;;;;;4836305;29;87554;-12
2021/08/09 00:31:20;;;;;;;1.95;1.15;;;24.10;58.60;;;;;;4837109;29;87862;-7
2021/08/09 00:33:46;;;;;;;2.55;1.20;;;24.10;58.60;;;;;;4836355;29;87481;-7
2021/08/09 00:36:11;;;;;;;1.25;1.00;;;24.00;58.60;;;;;;4836214;29;88164;-10
2021/08/09 00:38:37;;;;;;;1.73;1.20;;;24.00;58.60;;;;;;4835909;29;88479;-13
2021/08/09 00:41:03;;;;;;;2.00;1.27;;;24.10;58.60;;;;;;4835923;29;88863;-13
2021/08/09 00:43:28;;;;;;;2.08;1.42;;;24.00;58.60;;;;;;4836015;29;88313;-7
2021/08/09 00:45:56;;;;;;;1.48;1.10;;;24.00;58.60;;;;;;4836665;29;88523;-14
2021/08/09 00:48:21;;;;;;;2.00;1.25;;;24.00;58.60;;;;;;4836568;29;89596;-6
2021/08/09 00:50:47;;;;;;;2.10;1.10;;;24.00;58.60;;;;;;4836460;29;89090;-8
2021/08/09 00:53:13;;;;;;;1.10;1.00;;;24.00;58.60;;;;;;4837131;29;88216;-16
2021/08/09 00:55:42;;;;;;;1.55;1.10;;;24.00;58.60;;;;;;4851500;29;88359;-7
2021/08/09 00:58:08;;;;;;;2.17;1.15;;;24.00;58.60;;;;;;4836798;29;88248;-6
2021/08/09 01:00:34;;;;;;;2.80;1.10;;;24.00;58.60;;;;;;4836652;29;87580;-5
2021/08/09 01:03:00;;;;;;;1.38;1.05;;;24.00;58.60;;;;;;4836477;29;89386;-7
2021/08/09 01:05:25;;;;;;;2.60;1.13;;;24.00;58.60;;;;;;4836771;29;88249;-6
2021/08/09 01:08:07;;;;;;;1.10;0.95;;;24.00;58.60;;;;;;4836912;29;87622;-15
2021/08/09 01:11:00;;;;;;;1.95;1.23;;;24.00;58.70;;;;;;4836964;29;87736;-7
2021/08/09 01:13:58;;;;;;;1.30;1.17;;;24.00;58.60;;;;;;4827756;29;87684;-13
2021/08/09 01:16:31;;;;;;;1.63;1.05;;;24.00;58.70;;;;;;4836827;29;87879;-10
2021/08/09 01:19:03;;;;;;;1.40;1.20;;;24.00;58.60;;;;;;4834960;29;89475;-9
2021/08/09 01:21:34;;;;;;;2.22;1.30;;;24.00;58.70;;;;;;4836309;29;88850;-12
2021/08/09 01:24:54;;;;;;;0.98;0.90;;;24.00;58.70;;;;;;4836260;29;87838;-9
2021/08/09 01:27:31;;;;;;;2.13;1.23;;;24.00;58.70;;;;;;4814506;29;87540;-17
2021/08/09 01:30:09;;;;;;;1.10;1.00;;;24.00;58.70;;;;;;4815713;29;89507;-11
2021/08/09 01:32:39;;;;;;;1.70;1.20;;;24.10;58.80;;;;;;4832853;29;89511;-6
2021/08/09 01:35:07;;;;;;;1.65;1.00;;;23.90;58.70;;;;;;4826743;29;87832;-8
2021/08/09 01:37:35;;;;;;;1.55;0.98;;;23.90;58.70;;;;;;4817194;29;88307;-8
2021/08/09 01:40:04;;;;;;;1.20;1.10;;;24.00;58.80;;;;;;4817603;29;90539;-10
2021/08/09 01:42:29;;;;;;;1.85;1.10;;;23.90;58.70;;;;;;4817736;29;87947;-7
2021/08/09 01:44:55;;;;;;;2.05;1.10;;;23.90;58.70;;;;;;4818634;29;87921;-6
2021/08/09 01:47:21;;;;;;;2.22;1.00;;;23.90;58.80;;;;;;4831233;29;88001;-13
2021/08/09 01:49:48;;;;;;;1.70;1.30;;;23.90;58.80;;;;;;4817380;29;88175;-11
2021/08/09 01:52:15;;;;;;;1.73;1.08;;;23.90;58.80;;;;;;4818352;29;88476;-8
2021/08/09 01:54:41;;;;;;;1.38;1.10;;;23.90;58.80;;;;;;4819198;29;88987;-11
2021/08/09 01:57:06;;;;;;;2.08;1.17;;;23.90;58.80;;;;;;4834497;29;88216;-7
2021/08/09 01:59:32;;;;;;;1.50;1.10;;;23.90;58.80;;;;;;4827825;29;87920;-8
2021/08/09 02:01:58;;;;;;;2.42;1.50;;;23.90;58.80;;;;;;4839123;29;87868;-7
2021/08/09 02:04:23;;;;;;;2.20;1.10;;;23.90;58.80;;;;;;4839830;29;87199;-8
2021/08/09 02:06:49;;;;;;;2.00;1.02;;;23.90;58.80;;;;;;4838899;29;87448;-10
2021/08/09 02:09:16;;;;;;;1.80;0.98;;;23.90;58.80;;;;;;4838686;29;90120;-6
2021/08/09 02:12:07;;;;;;;1.80;0.93;;;23.90;58.90;;;;;;4839010;29;87537;-9
2021/08/09 02:14:40;;;;;;;1.20;1.10;;;23.90;58.80;;;;;;4839138;29;87533;-15
2021/08/09 02:17:13;;;;;;;1.33;1.03;;;23.90;58.80;;;;;;4838705;29;87947;-6
2021/08/09 02:19:45;;;;;;;1.58;0.98;;;23.90;58.80;;;;;;4838182;29;89067;-6
2021/08/09 02:22:22;;;;;;;2.55;1.00;;;23.90;58.90;;;;;;4838788;29;89542;-8
2021/08/09 02:25:03;;;;;;;1.70;1.00;;;23.90;58.80;;;;;;4838621;29;88286;-6
2021/08/09 02:27:47;;;;;;;1.35;1.23;;;23.80;58.80;;;;;;4837871;29;88888;-7
2021/08/09 02:30:17;;;;;;;1.40;0.90;;;23.80;58.80;;;;;;4852323;29;89867;-14
2021/08/09 02:32:44;;;;;;;1.30;1.20;;;23.80;58.80;;;;;;4852170;29;90231;-10
2021/08/09 02:35:15;;;;;;;1.80;1.30;;;23.90;58.90;;;;;;4839013;29;87934;-7
2021/08/09 02:37:44;;;;;;;1.95;1.20;;;23.80;58.90;;;;;;4837912;29;88254;-9
2021/08/09 02:40:12;;;;;;;1.00;0.90;;;23.80;58.90;;;;;;4839045;29;89585;-9
2021/08/09 02:42:38;;;;;;;1.20;1.00;;;23.80;58.90;;;;;;4839064;29;87881;-14
2021/08/09 02:45:05;;;;;;;2.05;1.02;;;23.80;58.90;;;;;;4839243;29;87976;-9
2021/08/09 02:47:33;;;;;;;1.98;0.98;;;23.80;58.90;;;;;;4838083;29;88238;-15
2021/08/09 02:50:00;;;;;;;1.77;1.00;;;23.80;58.90;;;;;;4838250;29;89008;-12
2021/08/09 02:52:26;;;;;;;1.02;0.88;;;23.80;58.90;;;;;;4838436;29;88659;-9
2021/08/09 02:54:53;;;;;;;1.35;1.15;;;23.80;58.90;;;;;;4838428;29;87473;-7
2021/08/09 02:57:19;;;;;;;1.20;1.00;;;23.80;58.90;;;;;;4838048;29;87144;-12
2021/08/09 02:59:45;;;;;;;1.60;1.20;;;23.80;58.90;;;;;;4837814;29;90090;-10
2021/08/09 03:02:14;;;;;;;1.52;0.80;;;23.80;58.90;;;;;;4838551;29;90410;-6
2021/08/09 03:04:41;;;;;;;1.30;1.05;;;23.80;58.90;;;;;;4838939;29;88018;-11
2021/08/09 03:07:08;;;;;;;1.35;1.00;;;23.80;58.90;;;;;;4838168;29;88525;-6
2021/08/09 03:09:34;;;;;;;1.10;1.00;;;23.80;59.00;;;;;;4837989;29;89132;-15
2021/08/09 03:12:00;;;;;;;1.73;1.10;;;23.80;58.90;;;;;;4837084;29;90251;-6
2021/08/09 03:14:30;;;;;;;1.83;1.20;;;23.80;58.90;;;;;;4837240;29;87462;-7
2021/08/09 03:16:56;;;;;;;1.73;1.08;;;23.80;58.90;;;;;;4836908;29;87599;-6
2021/08/09 03:19:21;;;;;;;2.00;1.15;;;23.80;58.90;;;;;;4837763;29;88214;-7
2021/08/09 03:21:51;;;;;;;1.33;1.10;;;23.80;59.00;;;;;;4838050;29;87862;-7
2021/08/09 03:24:18;;;;;;;1.08;0.80;;;23.80;59.00;;;;;;4852910;29;87684;-7
2021/08/09 03:26:43;;;;;;;1.83;0.88;;;23.80;58.90;;;;;;4838915;29;86942;-8
2021/08/09 03:29:09;;;;;;;1.60;1.17;;;23.80;58.90;;;;;;4838015;29;88203;-7
2021/08/09 03:31:34;;;;;;;1.67;1.42;;;23.80;59.00;;;;;;4838229;29;87751;-9
2021/08/09 03:34:00;;;;;;;1.02;0.75;;;23.70;58.90;;;;;;4852061;29;88107;-11
2021/08/09 03:36:26;;;;;;;1.75;0.80;;;23.70;58.90;;;;;;4837868;29;87726;-10
2021/08/09 03:38:51;;;;;;;0.77;0.70;;;23.70;59.00;;;;;;4852474;29;88974;-7
2021/08/09 03:41:17;;;;;;;0.98;0.88;;;23.70;59.00;;;;;;4838535;29;88485;-11
2021/08/09 03:43:42;;;;;;;1.90;0.80;;;23.70;59.00;;;;;;4838340;29;88112;-7
2021/08/09 03:46:09;;;;;;;1.67;1.08;;;23.70;59.00;;;;;;4839277;29;87497;-6
2021/08/09 03:48:35;;;;;;;1.42;1.00;;;23.70;59.00;;;;;;4838480;29;88310;-10
2021/08/09 03:51:01;;;;;;;1.02;0.60;;;23.70;59.00;;;;;;4838649;29;87856;-6
2021/08/09 03:53:26;;;;;;;0.88;0.80;;;23.80;59.00;;;;;;4838513;29;87188;-8
2021/08/09 03:55:52;;;;;;;1.58;1.17;;;23.70;59.00;;;;;;4851863;29;88125;-7
2021/08/09 03:58:17;;;;;;;1.23;1.00;;;23.80;59.00;;;;;;4851107;29;90214;-6
2021/08/09 04:00:43;;;;;;;1.27;0.90;;;23.70;59.00;;;;;;4837412;29;88099;-8
2021/08/09 04:03:09;;;;;;;1.50;1.25;;;23.70;59.00;;;;;;4836974;29;87973;-10
2021/08/09 04:05:34;;;;;;;0.93;0.82;;;23.70;59.00;;;;;;4837374;29;88308;-8
2021/08/09 04:08:00;;;;;;;1.13;1.02;;;23.70;59.00;;;;;;4837949;29;88082;-7
2021/08/09 04:10:25;;;;;;;1.20;0.70;;;23.70;59.10;;;;;;4837928;29;87980;-7
2021/08/09 04:12:51;;;;;;;1.50;0.73;;;23.70;59.00;;;;;;4837788;29;87819;-7
2021/08/09 04:15:17;;;;;;;0.88;0.80;;;23.70;59.00;;;;;;4838346;29;87304;-6
2021/08/09 04:17:44;;;;;;;0.85;0.77;;;23.70;59.00;;;;;;4836383;29;88279;-6
2021/08/09 04:20:10;;;;;;;0.88;0.80;;;23.70;59.10;;;;;;4838054;29;88888;-7
2021/08/09 04:22:36;;;;;;;1.25;1.00;;;23.70;59.00;;;;;;4835162;29;88543;-8
2021/08/09 04:25:02;;;;;;;1.17;1.08;;;23.70;59.10;;;;;;4836751;29;87816;-7
2021/08/09 04:27:28;;;;;;;1.10;0.98;;;23.70;59.10;;;;;;4837424;29;89160;-6
2021/08/09 04:29:54;;;;;;;0.90;0.80;;;23.70;59.10;;;;;;4837455;29;88198;-14
2021/08/09 04:32:20;;;;;;;1.10;1.00;;;23.70;59.10;;;;;;4837722;29;88275;-15
2021/08/09 04:34:45;;;;;;;1.13;0.80;;;23.70;59.10;;;;;;4837501;29;88500;-7
2021/08/09 04:37:12;;;;;;;1.10;0.95;;;23.70;59.10;;;;;;4837238;29;88482;-8
2021/08/09 04:39:38;;;;;;;1.25;0.95;;;23.70;59.10;;;;;;4837497;29;88777;-6
2021/08/09 04:42:04;;;;;;;1.80;0.85;;;23.70;59.10;;;;;;4836142;29;87562;-9
2021/08/09 04:44:30;;;;;;;0.90;0.70;;;23.70;59.10;;;;;;4837193;29;87774;-7
2021/08/09 04:46:57;;;;;;;1.30;1.15;;;23.70;59.10;;;;;;4836671;29;89269;-7
2021/08/09 04:49:26;;;;;;;1.38;1.10;;;23.60;59.10;;;;;;4850806;29;91029;-7
2021/08/09 04:51:52;;;;;;;1.23;0.80;;;23.70;59.20;;;;;;4836719;29;87271;-10
2021/08/09 04:54:18;;;;;;;1.13;0.90;;;23.60;59.10;;;;;;4836372;29;88164;-15
2021/08/09 04:56:43;;;;;;;1.52;0.88;;;23.70;59.20;;;;;;4836399;29;87818;-8
2021/08/09 04:59:09;;;;;;;0.85;0.80;;;23.60;59.10;;;;;;4836286;29;87917;-10
2021/08/09 05:01:35;;;;;;;1.48;0.85;;;23.60;59.10;;;;;;4837084;29;88044;-7
2021/08/09 05:04:02;;;;;;;0.80;0.80;;;23.60;59.10;;;;;;4837601;29;88286;-6
2021/08/09 05:06:28;;;;;;;0.75;0.75;;;23.70;59.20;;;;;;4836907;29;89654;-8
2021/08/09 05:08:53;;;;;;;1.02;0.82;;;23.60;59.20;;;;;;4836240;29;89500;-7
2021/08/09 05:11:20;;;;;;;1.15;0.90;;;23.60;59.10;;;;;;4836307;29;89276;-7
2021/08/09 05:13:45;;;;;;;1.52;1.00;;;23.60;59.10;;;;;;4837213;29;87672;-12
2021/08/09 05:16:11;;;;;;;1.83;1.35;;;23.70;59.20;;;;;;4850503;29;89769;-6
2021/08/09 05:18:36;;;;;;;1.77;1.00;;;23.60;59.10;;;;;;4835615;29;89249;-16
2021/08/09 05:21:02;;;;;;;0.98;0.63;;;23.60;59.10;;;;;;4835937;29;87724;-9
2021/08/09 05:23:28;;;;;;;0.85;0.80;;;23.60;59.10;;;;;;4836061;29;87583;-8
2021/08/09 05:25:54;;;;;;;0.82;0.82;;;23.60;59.10;;;;;;4836243;29;87568;-11
2021/08/09 05:28:20;;;;;;;1.15;0.80;;;23.60;59.20;;;;;;4836477;29;89333;-12
2021/08/09 05:30:46;;;;;;;1.17;0.70;;;23.60;59.10;;;;;;4836527;29;87319;-11
2021/08/09 05:33:12;;;;;;;1.30;1.05;;;23.60;59.10;;;;;;4836309;29;88122;-9
2021/08/09 05:35:38;;;;;;;1.27;0.70;;;23.60;59.20;;;;;;4835862;29;88620;-11
2021/08/09 05:38:04;;;;;;;1.15;0.77;;;23.60;59.10;;;;;;4836926;29;88164;-6
2021/08/09 05:40:30;;;;;;;0.95;0.85;;;23.70;59.20;;;;;;4836600;29;87481;-16
2021/08/09 05:42:56;;;;;;;0.70;0.70;;;23.60;59.10;;;;;;4836889;29;87753;-6
2021/08/09 05:45:22;;;;;;;0.82;0.73;;;23.70;59.20;;;;;;4836019;29;87659;-8
2021/08/09 05:47:50;;;;;;;1.30;1.00;;;23.70;59.20;;;;;;4836561;29;87913;-6
2021/08/09 05:50:15;;;;;;;2.28;1.10;;;23.70;59.20;;;;;;4836909;29;87728;-7
2021/08/09 05:52:41;;;;;;;1.90;1.42;;;23.70;59.50;;;;;;4836777;29;87001;-9
2021/08/09 05:55:07;;;;;;;1.33;1.23;;;23.70;59.70;;;;;;4836024;29;88769;-7
2021/08/09 05:57:33;;;;;;;13.10;2.60;;;23.70;59.80;;;;;;4836334;29;87735;-9
2021/08/09 05:59:58;;;;;;;25.40;4.40;;;23.70;59.80;;;;;;4835692;29;88806;-14
2021/08/09 06:02:24;;;;;;;22.63;5.28;;;23.70;60.00;;;;;;4813999;29;87973;-7
2021/08/09 06:04:50;;;;;;;14.43;4.40;;;23.70;60.10;;;;;;4816400;29;87348;-8
2021/08/09 06:07:17;;;;;;;17.15;4.20;;;23.70;60.00;;;;;;4816394;29;88697;-10
2021/08/09 06:09:44;;;;;;;23.02;4.35;;;23.80;60.40;;;;;;4816901;29;87813;-9
2021/08/09 06:12:11;;;;;;;18.98;4.35;;;23.80;60.30;;;;;;4787391;29;88426;-13
2021/08/09 06:14:37;;;;;;;19.58;4.47;;;23.80;59.90;;;;;;4818373;29;87823;-12
2021/08/09 06:17:07;;;;;;;18.42;3.97;;;23.80;60.00;;;;;;4817963;29;88325;-9
2021/08/09 06:19:36;;;;;;;23.50;4.38;;;23.80;60.00;;;;;;4819294;29;87810;-6
2021/08/09 06:22:03;;;;;;;10.05;3.50;;;23.80;59.80;;;;;;4813073;29;89385;-15
2021/08/09 06:24:28;;;;;;;12.80;2.92;;;23.80;59.60;;;;;;4814922;29;88771;-14
2021/08/09 06:26:56;;;;;;;21.60;4.40;;;23.80;59.10;;;;;;4815022;29;88889;-7
2021/08/09 06:29:22;;;;;;;31.50;6.03;;;23.80;58.90;;;;;;4815875;29;88320;-16
2021/08/09 06:31:48;;;;;;;26.05;5.85;;;23.80;59.30;;;;;;4821096;29;88081;-10
2021/08/09 06:34:13;;;;;;;19.38;5.63;;;23.80;59.50;;;;;;4816473;29;88710;-10
2021/08/09 06:36:39;;;;;;;32.67;5.90;;;23.80;60.10;;;;;;4815530;29;87557;-12
2021/08/09 06:39:05;;;;;;;45.10;7.28;;;23.80;59.80;;;;;;4824233;29;88115;-12
2021/08/09 06:41:32;;;;;;;36.42;5.72;;;23.90;59.80;;;;;;4835022;29;88512;-13
2021/08/09 06:43:59;;;;;;;45.78;5.85;;;23.90;59.80;;;;;;4838757;29;88082;-9
2021/08/09 06:46:25;;;;;;;25.27;4.70;;;23.80;59.70;;;;;;4838892;29;87870;-6
2021/08/09 06:48:51;;;;;;;30.73;5.85;;;23.80;59.80;;;;;;4837337;29;89405;-6
2021/08/09 06:51:22;;;;;;;23.75;4.82;;;23.90;59.90;;;;;;4837684;29;87619;-14
2021/08/09 06:53:48;;;;;;;18.02;5.00;;;23.90;59.20;;;;;;4819436;29;87990;-12
2021/08/09 06:56:15;;;;;;;24.35;4.53;;;23.90;60.10;;;;;;4819904;29;87942;-9
2021/08/09 06:58:41;;;;;;;21.23;4.43;;;23.90;60.30;;;;;;4833468;29;88036;-9
2021/08/09 07:01:07;;;;;;;27.15;5.35;;;23.90;60.20;;;;;;4835443;29;87897;-8
2021/08/09 07:03:32;;;;;;;34.72;6.38;;;23.90;60.40;;;;;;4838876;29;88206;-15
2021/08/09 07:05:58;;;;;;;23.10;4.55;;;23.90;60.60;;;;;;4838552;29;88559;-10
2021/08/09 07:08:24;;;;;;;31.33;7.15;;;24.00;60.70;;;;;;4837536;29;88092;-8
2021/08/09 07:10:51;;;;;;;37.10;8.70;;;24.00;60.60;;;;;;4837427;29;87757;-14
2021/08/09 07:13:18;;;;;;;33.20;8.68;;;24.00;60.80;;;;;;4836988;29;89791;-11
2021/08/09 07:15:43;;;;;;;33.55;8.60;;;23.90;60.60;;;;;;4837832;29;88437;-6
2021/08/09 07:18:09;;;;;;;24.40;5.78;;;23.90;60.70;;;;;;4836377;29;88021;-8
2021/08/09 07:20:35;;;;;;;28.08;5.20;;;23.90;59.80;;;;;;4837749;29;88035;-8
2021/08/09 07:23:00;;;;;;;21.95;5.40;;;23.90;59.60;;;;;;4837452;29;87653;-11
2021/08/09 07:25:29;;;;;;;18.15;5.18;;;23.90;59.50;;;;;;4838156;29;87867;-10
2021/08/09 07:27:54;;;;;;;17.58;4.45;;;23.90;59.40;;;;;;4838281;29;88043;-11
2021/08/09 07:30:20;;;;;;;16.40;4.85;;;23.90;59.00;;;;;;4838305;29;86979;-7
2021/08/09 07:32:46;;;;;;;16.27;3.17;;;23.90;59.20;;;;;;4837994;29;89691;-7
2021/08/09 07:35:12;;;;;;;15.70;3.30;;;23.90;58.60;;;;;;4838273;29;87980;-9
2021/08/09 07:37:37;;;;;;;17.58;3.35;;;23.80;58.90;;;;;;4852080;29;88702;-6
2021/08/09 07:40:05;;;;;;;11.00;3.42;;;23.90;59.30;;;;;;4838010;29;88168;-8
2021/08/09 07:42:31;;;;;;;13.80;3.10;;;23.90;60.10;;;;;;4837300;29;90478;-7
2021/08/09 07:44:57;;;;;;;12.85;3.22;;;24.00;60.20;;;;;;4835159;29;87919;-16
2021/08/09 07:47:22;;;;;;;11.13;3.05;;;24.00;61.00;;;;;;4836399;29;87082;-6
2021/08/09 07:49:48;;;;;;;15.45;3.42;;;24.00;60.60;;;;;;4836324;29;88101;-12
2021/08/09 07:52:14;;;;;;;11.73;3.17;;;24.00;60.60;;;;;;4836654;29;87793;-7
2021/08/09 07:54:39;;;;;;;14.50;3.33;;;24.10;60.40;;;;;;4837450;29;87430;-11
2021/08/09 07:57:08;;;;;;;15.27;3.42;;;24.10;60.40;;;;;;4835066;29;88308;-12
2021/08/09 07:59:34;;;;;;;13.57;2.70;;;24.20;60.20;;;;;;4825797;29;87477;-6
2021/08/09 08:02:02;;;;;;;12.43;2.95;;;24.20;60.40;;;;;;4835912;29;89236;-5
2021/08/09 08:04:31;;;;;;;12.52;3.30;;;24.30;60.30;;;;;;4836459;29;90134;-8
2021/08/09 08:06:57;;;;;;;10.13;2.38;;;24.40;60.10;;;;;;4836180;29;88345;-9
2021/08/09 08:09:22;;;;;;;10.88;3.20;;;24.40;59.40;;;;;;4836380;29;87633;-8
2021/08/09 08:11:48;;;;;;;10.45;2.67;;;24.50;60.10;;;;;;4835940;29;87830;-6
2021/08/09 08:14:14;;;;;;;11.02;2.15;;;24.50;60.10;;;;;;4837038;29;88837;-9
2021/08/09 08:16:40;;;;;;;9.63;2.72;;;24.60;59.80;;;;;;4836447;29;88023;-6
2021/08/09 08:19:05;;;;;;;13.98;2.30;;;24.60;59.70;;;;;;4837285;29;87354;-16
2021/08/09 08:21:32;;;;;;;17.27;3.38;;;24.60;59.80;;;;;;4835846;29;88175;-12
2021/08/09 08:23:58;;;;;;;14.30;2.53;;;24.70;59.70;;;;;;4835787;29;88012;-9
2021/08/09 08:26:23;;;;;;;11.38;2.35;;;24.70;59.80;;;;;;4835692;29;87991;-9
2021/08/09 08:28:49;;;;;;;7.82;2.30;;;24.80;59.80;;;;;;4816663;29;87954;-6
2021/08/09 08:31:15;;;;;;;10.38;2.25;;;24.80;59.50;;;;;;4817718;29;89735;-14
2021/08/09 08:33:40;;;;;;;13.82;2.75;;;24.80;59.60;;;;;;4826378;29;87493;-6
2021/08/09 08:36:06;;;;;;;11.80;1.98;;;24.80;59.70;;;;;;4830067;29;88309;-16
2021/08/09 08:38:34;;;;;;;13.02;2.58;;;24.90;59.60;;;;;;4816730;29;87343;-8
2021/08/09 08:41:05;;;;;;;13.55;2.75;;;24.90;59.40;;;;;;4829855;29;89907;-10
2021/08/09 08:43:32;;;;;;;9.38;2.38;;;24.90;59.30;;;;;;4815345;29;89478;-6
2021/08/09 08:46:00;;;;;;;8.52;2.40;;;24.90;59.20;;;;;;4816685;29;87191;-8
2021/08/09 08:48:27;;;;;;;17.45;2.70;;;24.90;59.00;;;;;;4816935;29;88400;-11
2021/08/09 08:50:56;;;;;;;10.57;2.67;;;24.90;58.90;;;;;;4816344;29;89142;-8
2021/08/09 08:53:24;;;;;;;9.93;2.30;;;24.90;59.00;;;;;;4816102;29;88593;-6
2021/08/09 08:55:50;;;;;;;7.43;2.13;;;25.00;58.90;;;;;;4817232;29;88130;-7
2021/08/09 08:58:15;;;;;;;4.97;1.80;;;25.10;58.70;;;;;;4815962;29;88309;-8
2021/08/09 09:00:42;;;;;;;8.65;2.10;;;25.10;58.50;;;;;;4816444;29;89707;-13
2021/08/09 09:03:23;;;;;;;13.93;2.30;;;25.20;58.50;;;;;;4812915;29;89486;-10
2021/08/09 09:05:59;;;;;;;10.10;2.17;;;25.20;58.40;;;;;;4812325;29;87843;-6
2021/08/09 09:08:46;;;;;;;6.22;2.05;;;25.30;58.40;;;;;;4817252;29;87056;-8
2021/08/09 09:11:37;;;;;;;9.73;2.35;;;25.20;58.40;;;;;;4816954;29;87781;-12
2021/08/09 09:14:05;;;;;;;9.88;1.92;;;25.20;58.00;;;;;;4816905;29;89063;-15
2021/08/09 09:16:48;;;;;;;9.13;2.17;;;25.20;57.90;;;;;;4815585;29;88954;-15
2021/08/09 09:19:38;;;;;;;7.85;2.10;;;25.10;58.10;;;;;;4816576;29;87936;-7
2021/08/09 09:22:10;;;;;;;6.40;1.88;;;25.20;58.20;;;;;;4816211;29;87981;-8
2021/08/09 09:24:46;;;;;;;7.28;1.80;;;25.10;58.10;;;;;;4815655;29;88032;-7
2021/08/09 09:27:27;;;;;;;8.13;2.30;;;25.10;57.70;;;;;;4815418;29;87714;-7
2021/08/09 09:29:54;;;;;;;10.25;1.67;;;25.10;58.10;;;;;;4813665;29;88411;-10
2021/08/09 09:32:23;;;;;;;7.15;1.77;;;25.20;58.00;;;;;;4815693;29;88231;-8
2021/08/09 09:34:58;;;;;;;5.40;1.70;;;25.20;57.90;;;;;;4816179;29;88649;-9
2021/08/09 09:37:39;;;;;;;8.77;1.92;;;25.30;57.90;;;;;;4815826;29;87450;-6
2021/08/09 09:40:11;;;;;;;5.25;1.33;;;25.30;57.80;;;;;;4816329;29;88068;-11
2021/08/09 09:42:39;;;;;;;7.30;1.30;;;25.30;57.60;;;;;;4815787;29;89308;-9
2021/08/09 09:45:20;;;;;;;10.98;1.75;;;25.30;57.50;;;;;;4815730;29;88990;-5
2021/08/09 09:47:59;;;;;;;7.65;1.70;;;25.30;57.40;;;;;;4830530;29;87616;-7
2021/08/09 09:50:25;;;;;;;5.05;1.55;;;25.40;57.40;;;;;;4816305;29;88052;-6
2021/08/09 09:52:55;;;;;;;6.03;1.60;;;25.40;57.30;;;;;;4815615;29;87979;-7
2021/08/09 09:55:29;;;;;;;8.10;1.40;;;25.40;57.30;;;;;;4814815;29;88250;-15
2021/08/09 09:57:56;;;;;;;4.20;1.63;;;25.40;57.30;;;;;;4816218;29;87869;-7
2021/08/09 10:00:21;;;;;;;8.30;1.83;;;25.40;57.50;;;;;;4813748;29;88966;-7
2021/08/09 10:02:48;;;;;;;4.43;1.50;;;25.50;57.90;;;;;;4815945;29;88062;-7
2021/08/09 10:05:18;;;;;;;8.02;1.67;;;25.50;58.20;;;;;;4815947;29;87769;-7
2021/08/09 10:07:48;;;;;;;11.27;1.65;;;25.40;58.20;;;;;;4815498;29;89342;-8
2021/08/09 10:10:23;;;;;;;8.77;1.35;;;25.50;58.20;;;;;;4814396;29;91089;-11
2021/08/09 10:12:53;;;;;;;5.35;1.58;;;25.50;58.40;;;;;;4816116;29;88478;-16
2021/08/09 10:15:20;;;;;;;5.60;1.40;;;25.50;58.60;;;;;;4829524;29;91621;-15
2021/08/09 10:18:00;;;;;;;8.70;1.60;;;25.50;58.60;;;;;;4819651;29;88153;-8
2021/08/09 10:20:28;;;;;;;9.02;1.60;;;25.50;58.60;;;;;;4819957;29;88241;-10
2021/08/09 10:22:56;;;;;;;6.03;1.50;;;25.50;58.70;;;;;;4823071;29;88270;-6
2021/08/09 10:25:47;;;;;;;5.78;1.05;;;25.50;58.80;;;;;;4822044;29;88724;-8
2021/08/09 10:28:21;;;;;;;6.38;1.55;;;25.50;58.60;;;;;;4819348;29;87933;-8
2021/08/09 10:31:00;;;;;;;6.20;1.20;;;25.40;57.70;;;;;;4818828;29;87263;-6
2021/08/09 10:33:47;;;;;;;6.53;2.10;;;25.30;58.40;;;;;;4832957;29;90456;-7
2021/08/09 10:36:21;;;;;;;10.77;2.78;;;25.20;58.80;;;;;;4819380;29;89217;-14
2021/08/09 10:38:55;;;;;;;5.95;2.75;;;25.30;59.10;;;;;;4820249;29;88406;-10
2021/08/09 10:41:33;;;;;;;6.75;3.25;;;25.20;59.00;;;;;;4819917;29;88588;-16
2021/08/09 10:44:06;;;;;;;7.40;2.67;;;25.10;59.40;;;;;;4819583;29;88176;-6
2021/08/09 10:46:41;;;;;;;8.73;2.58;;;25.10;58.70;;;;;;4818952;29;88116;-9
2021/08/09 10:49:07;;;;;;;6.82;2.55;;;25.10;58.90;;;;;;4818404;29;88276;-9
2021/08/09 10:51:51;;;;;;;6.03;2.53;;;25.10;59.10;;;;;;4819055;29;88679;-7
2021/08/09 10:54:37;;;;;;;5.13;2.50;;;25.10;59.00;;;;;;4818668;29;89133;-8
2021/08/09 10:57:03;;;;;;;14.57;2.67;;;25.10;59.00;;;;;;4818912;29;88073;-10
2021/08/09 10:59:43;;;;;;;6.38;2.20;;;25.10;59.30;;;;;;4819261;29;89197;-9
2021/08/09 11:02:27;;;;;;;7.75;2.95;;;25.00;59.40;;;;;;4819863;29;88799;-13
2021/08/09 11:05:12;;;;;;;8.43;2.80;;;24.90;59.70;;;;;;4819925;29;88569;-6
2021/08/09 11:07:37;;;;;;;6.68;2.38;;;25.00;60.10;;;;;;4819710;29;88190;-7
2021/08/09 11:10:04;;;;;;;12.25;3.35;;;24.90;60.30;;;;;;4819689;29;87166;-8
2021/08/09 11:12:30;;;;;;;9.85;2.70;;;24.80;60.40;;;;;;4819334;29;88676;-15
2021/08/09 11:17:29;;;;;;;9.25;2.53;;;24.80;60.60;;;;;;4820007;29;87809;-7
2021/08/09 11:20:17;;;;;;;4.18;2.28;;;24.80;60.70;;;;;;4819910;29;87889;-10
2021/08/09 11:22:46;;;;;;;6.95;2.40;;;24.80;60.70;;;;;;4819061;29;88279;-7
2021/08/09 11:25:37;;;;;;;13.20;3.20;;;24.80;60.60;;;;;;4818800;29;89056;-8
2021/08/09 11:28:03;;;;;;;6.22;2.42;;;24.80;60.50;;;;;;4819529;29;87357;-7
2021/08/09 11:30:59;;;;;;;8.82;2.17;;;24.70;60.40;;;;;;4819814;29;87614;-13
2021/08/09 11:33:26;;;;;;;6.07;2.47;;;24.80;60.40;;;;;;4817039;29;88166;-15
2021/08/09 11:35:54;;;;;;;8.27;2.20;;;24.80;60.40;;;;;;4819386;29;88096;-12
2021/08/09 11:38:21;;;;;;;7.10;2.60;;;24.80;60.40;;;;;;4819756;29;87854;-7
2021/08/09 11:40:51;;;;;;;5.68;2.08;;;24.80;60.50;;;;;;4820152;29;87612;-9
2021/08/09 11:43:29;;;;;;;8.25;2.35;;;24.70;60.40;;;;;;4819602;29;88770;-9
2021/08/09 11:46:01;;;;;;;7.32;2.17;;;24.70;60.60;;;;;;4818755;29;89196;-14
2021/08/09 11:48:30;;;;;;;4.35;2.17;;;24.60;60.60;;;;;;4817019;29;88936;-13
2021/08/09 11:51:00;;;;;;;5.50;2.22;;;24.70;60.60;;;;;;4818404;29;88556;-9
2021/08/09 11:53:27;;;;;;;7.97;2.35;;;24.60;60.50;;;;;;4819008;29;88639;-11
2021/08/09 11:56:21;;;;;;;7.70;2.60;;;24.60;60.70;;;;;;4818810;29;88187;-9
2021/08/09 11:58:47;;;;;;;8.50;2.30;;;24.60;60.70;;;;;;4819303;29;88245;-7
2021/08/09 12:01:21;;;;;;;7.38;2.47;;;24.60;60.70;;;;;;4818886;29;88727;-9
2021/08/09 12:04:13;;;;;;;6.85;2.47;;;24.60;60.70;;;;;;4819082;29;88497;-16
2021/08/09 12:06:44;;;;;;;7.72;2.20;;;24.50;60.60;;;;;;4818786;29;88426;-13
2021/08/09 12:09:12;;;;;;;7.53;2.22;;;24.60;60.70;;;;;;4832885;29;89226;-11
2021/08/09 12:11:39;;;;;;;7.47;2.28;;;24.60;60.60;;;;;;4818804;29;87821;-10
2021/08/09 12:14:11;;;;;;;7.35;2.35;;;24.60;60.30;;;;;;4821861;29;88115;-9
2021/08/09 12:17:11;;;;;;;7.70;2.17;;;24.60;60.30;;;;;;4817631;29;88499;-7
2021/08/09 12:19:43;;;;;;;4.63;2.00;;;24.60;60.50;;;;;;4818735;29;88810;-12
2021/08/09 12:22:30;;;;;;;2.95;1.75;;;24.60;59.90;;;;;;4819242;29;87227;-7
2021/08/09 12:24:58;;;;;;;3.65;1.50;;;24.60;59.70;;;;;;4819228;29;87912;-7
2021/08/09 12:27:24;;;;;;;6.93;2.00;;;24.60;59.70;;;;;;4818141;29;88333;-10
2021/08/09 12:30:09;;;;;;;6.40;1.75;;;24.60;59.70;;;;;;4817389;29;87688;-17
2021/08/09 12:32:36;;;;;;;4.93;1.58;;;24.60;59.60;;;;;;4817603;29;87891;-9
2021/08/09 12:35:04;;;;;;;7.28;2.10;;;24.60;59.50;;;;;;4818173;29;87821;-8
2021/08/09 12:37:30;;;;;;;8.48;1.85;;;24.60;59.60;;;;;;4817594;29;90351;-8
2021/08/09 12:40:16;;;;;;;6.13;1.60;;;24.60;59.40;;;;;;4817711;29;88217;-12
2021/08/09 12:42:59;;;;;;;5.45;1.90;;;24.60;59.40;;;;;;4818527;29;89120;-6
2021/08/09 12:45:24;;;;;;;5.00;1.58;;;24.50;59.30;;;;;;4819048;29;88494;-8
2021/08/09 12:47:50;;;;;;;6.22;1.40;;;24.50;59.20;;;;;;4818739;29;88267;-7
2021/08/09 12:50:16;;;;;;;3.40;1.25;;;24.50;59.10;;;;;;4818386;29;87535;-8
2021/08/09 12:52:42;;;;;;;3.72;1.42;;;24.50;59.10;;;;;;4818776;29;87144;-8
2021/08/09 12:55:08;;;;;;;2.40;1.35;;;24.50;59.10;;;;;;4817772;29;88246;-7
2021/08/09 12:57:36;;;;;;;2.65;1.30;;;24.50;59.60;;;;;;4817294;29;90150;-16
2021/08/09 13:00:04;;;;;;;4.13;1.65;;;24.50;59.00;;;;;;4836459;29;87239;-7
2021/08/09 13:02:30;;;;;;;3.03;1.05;;;24.50;59.00;;;;;;4836100;29;88220;-6
2021/08/09 13:04:55;;;;;;;1.48;1.10;;;24.50;58.50;;;;;;4831304;29;88245;-7